Time;durP1;ratioP1;P1;durP2;ratioP2;P2;SDS_P1;SDS_P2;PMS_P1;PMS_P2;Temp;Humidity;BMP_temperature;BMP_pressure;BME280_temperature;BME280_humidity;BME280_pressure;Samples;Min_cycle;Max_cycle;Signal;HPM_P1;HPM_P2
2021/02/02 00:00:54;;;;;;;1.05;0.6;;;;;;;5.88;100;93911.11;;;;
2021/02/02 00:01:56;;;;;;;1.05;0.6;;;;;;;5.88;100;93911.11;;;;
2021/02/02 00:02:57;;;;;;;1.05;0.6;;;;;;;5.88;100;93911.11;;;;
2021/02/02 00:03:57;;;;;;;1.05;0.6;;;;;;;5.88;100;93911.11;;;;
2021/02/02 00:04:58;;;;;;;1.05;0.6;;;;;;;5.88;100;93911.11;;;;
2021/02/02 00:05:58;;;;;;;1.05;0.6;;;;;;;5.88;100;93911.11;;;;
2021/02/02 00:07:00;;;;;;;1;0.85;;;;;;;5.91;100;93914.12;;;;
2021/02/02 00:08:01;;;;;;;1;0.85;;;;;;;5.91;100;93914.12;;;;
2021/02/02 00:09:02;;;;;;;1;0.85;;;;;;;5.91;100;93914.12;;;;
2021/02/02 00:10:03;;;;;;;1;0.85;;;;;;;5.91;100;93914.12;;;;
2021/02/02 00:11:04;;;;;;;1;0.85;;;;;;;5.91;100;93914.12;;;;
2021/02/02 00:12:05;;;;;;;1;0.85;;;;;;;5.91;100;93914.12;;;;
2021/02/02 00:13:06;;;;;;;1;0.85;;;;;;;5.91;100;93914.12;;;;
2021/02/02 00:14:07;;;;;;;1;0.85;;;;;;;5.91;100;93914.12;;;;
2021/02/02 00:15:08;;;;;;;1;0.85;;;;;;;5.91;100;93914.12;;;;
2021/02/02 00:16:09;;;;;;;1;0.85;;;;;;;5.91;100;93914.12;;;;
2021/02/02 00:17:10;;;;;;;1.3;1.2;;;;;;;6.05;100;93928.02;;;;
2021/02/02 00:18:10;;;;;;;1.3;1.2;;;;;;;6.05;100;93928.02;;;;
2021/02/02 00:19:10;;;;;;;1.3;1.2;;;;;;;6.05;100;93928.02;;;;
2021/02/02 00:20:11;;;;;;;1.3;1.2;;;;;;;6.05;100;93928.02;;;;
2021/02/02 00:21:14;;;;;;;1.3;1.2;;;;;;;6.05;100;93928.02;;;;
2021/02/02 00:22:15;;;;;;;1.3;1.2;;;;;;;6.05;100;93928.02;;;;
2021/02/02 00:23:15;;;;;;;1.3;1.2;;;;;;;6.05;100;93928.02;;;;
2021/02/02 00:24:18;;;;;;;1.3;1.2;;;;;;;6.05;100;93928.02;;;;
2021/02/02 00:25:19;;;;;;;1.3;1.2;;;;;;;6.05;100;93928.02;;;;
2021/02/02 00:26:21;;;;;;;1.3;1.2;;;;;;;6.05;100;93928.02;;;;
2021/02/02 00:27:22;;;;;;;1.3;1.2;;;;;;;6.05;100;93928.02;;;;
2021/02/02 00:28:22;;;;;;;2;1.4;;;;;;;6.04;100;93958.56;;;;
2021/02/02 00:29:23;;;;;;;2;1.4;;;;;;;6.04;100;93958.56;;;;
2021/02/02 00:30:23;;;;;;;2;1.4;;;;;;;6.04;100;93958.56;;;;
2021/02/02 00:31:26;;;;;;;2;1.4;;;;;;;6.04;100;93958.56;;;;
2021/02/02 00:32:30;;;;;;;2;1.4;;;;;;;6.04;100;93958.56;;;;
2021/02/02 00:33:30;;;;;;;2;1.4;;;;;;;6.04;100;93958.56;;;;
2021/02/02 00:34:31;;;;;;;2;1.4;;;;;;;6.04;100;93958.56;;;;
2021/02/02 00:35:31;;;;;;;2;1.4;;;;;;;6.04;100;93958.56;;;;
2021/02/02 00:36:33;;;;;;;2;1.4;;;;;;;6.04;100;93958.56;;;;
2021/02/02 00:37:33;;;;;;;2;1.4;;;;;;;6.04;100;93958.56;;;;
2021/02/02 00:38:35;;;;;;;2.1;1.8;;;;;;;6.11;100;93974.77;;;;
2021/02/02 00:39:35;;;;;;;2.1;1.8;;;;;;;6.11;100;93974.77;;;;
2021/02/02 00:40:36;;;;;;;2.1;1.8;;;;;;;6.11;100;93974.77;;;;
2021/02/02 00:41:37;;;;;;;2.1;1.8;;;;;;;6.11;100;93974.77;;;;
2021/02/02 00:42:37;;;;;;;2.1;1.8;;;;;;;6.11;100;93974.77;;;;
2021/02/02 00:43:38;;;;;;;2.1;1.8;;;;;;;6.11;100;93974.77;;;;
2021/02/02 00:44:38;;;;;;;2.1;1.8;;;;;;;6.11;100;93974.77;;;;
2021/02/02 00:45:39;;;;;;;2.1;1.8;;;;;;;6.11;100;93974.77;;;;
2021/02/02 00:46:40;;;;;;;2.1;1.8;;;;;;;6.11;100;93974.77;;;;
2021/02/02 00:47:41;;;;;;;2.1;1.8;;;;;;;6.11;100;93974.77;;;;
2021/02/02 00:48:41;;;;;;;2.1;1.8;;;;;;;6.11;100;93974.77;;;;
2021/02/02 00:49:42;;;;;;;2.8;1.5;;;;;;;6.12;100;93997.41;;;;
2021/02/02 00:50:42;;;;;;;2.8;1.5;;;;;;;6.12;100;93997.41;;;;
2021/02/02 00:51:45;;;;;;;2.8;1.5;;;;;;;6.12;100;93997.41;;;;
2021/02/02 00:52:45;;;;;;;2.8;1.5;;;;;;;6.12;100;93997.41;;;;
2021/02/02 00:53:46;;;;;;;2.8;1.5;;;;;;;6.12;100;93997.41;;;;
2021/02/02 00:54:46;;;;;;;2.8;1.5;;;;;;;6.12;100;93997.41;;;;
2021/02/02 00:55:47;;;;;;;2.8;1.5;;;;;;;6.12;100;93997.41;;;;
2021/02/02 00:56:48;;;;;;;2.8;1.5;;;;;;;6.12;100;93997.41;;;;
2021/02/02 00:57:48;;;;;;;2.8;1.5;;;;;;;6.12;100;93997.41;;;;
2021/02/02 00:58:50;;;;;;;2.8;1.5;;;;;;;6.12;100;93997.41;;;;
2021/02/02 00:59:51;;;;;;;2.7;1.7;;;;;;;6.22;100;94012.87;;;;
2021/02/02 01:00:52;;;;;;;2.7;1.7;;;;;;;6.22;100;94012.87;;;;
2021/02/02 01:01:52;;;;;;;2.7;1.7;;;;;;;6.22;100;94012.87;;;;
2021/02/02 01:02:53;;;;;;;2.7;1.7;;;;;;;6.22;100;94012.87;;;;
2021/02/02 01:03:54;;;;;;;2.7;1.7;;;;;;;6.22;100;94012.87;;;;
2021/02/02 01:04:55;;;;;;;2.7;1.7;;;;;;;6.22;100;94012.87;;;;
2021/02/02 01:05:55;;;;;;;2.7;1.7;;;;;;;6.22;100;94012.87;;;;
2021/02/02 01:06:56;;;;;;;2.7;1.7;;;;;;;6.22;100;94012.87;;;;
2021/02/02 01:07:56;;;;;;;2.7;1.7;;;;;;;6.22;100;94012.87;;;;
2021/02/02 01:08:57;;;;;;;2.7;1.7;;;;;;;6.22;100;94012.87;;;;
2021/02/02 01:09:57;;;;;;;2.7;1.7;;;;;;;6.22;100;94012.87;;;;
2021/02/02 01:10:58;;;;;;;1.85;1.75;;;;;;;6.21;100;94035.77;;;;
2021/02/02 01:11:58;;;;;;;1.85;1.75;;;;;;;6.21;100;94035.77;;;;
2021/02/02 01:12:59;;;;;;;1.85;1.75;;;;;;;6.21;100;94035.77;;;;
2021/02/02 01:14:01;;;;;;;1.85;1.75;;;;;;;6.21;100;94035.77;;;;
2021/02/02 01:15:01;;;;;;;1.85;1.75;;;;;;;6.21;100;94035.77;;;;
2021/02/02 01:16:09;;;;;;;1.85;1.75;;;;;;;6.21;100;94035.77;;;;
2021/02/02 01:17:09;;;;;;;1.85;1.75;;;;;;;6.21;100;94035.77;;;;
2021/02/02 01:18:10;;;;;;;1.85;1.75;;;;;;;6.21;100;94035.77;;;;
2021/02/02 01:19:13;;;;;;;1.85;1.75;;;;;;;6.21;100;94035.77;;;;
2021/02/02 01:20:13;;;;;;;1.85;1.75;;;;;;;6.21;100;94035.77;;;;
2021/02/02 01:21:14;;;;;;;1.95;1.75;;;;;;;6.18;100;94033.56;;;;
2021/02/02 01:22:15;;;;;;;1.95;1.75;;;;;;;6.18;100;94033.56;;;;
2021/02/02 01:23:15;;;;;;;1.95;1.75;;;;;;;6.18;100;94033.56;;;;
2021/02/02 01:24:18;;;;;;;1.95;1.75;;;;;;;6.18;100;94033.56;;;;
2021/02/02 01:25:19;;;;;;;1.95;1.75;;;;;;;6.18;100;94033.56;;;;
2021/02/02 01:26:21;;;;;;;1.95;1.75;;;;;;;6.18;100;94033.56;;;;
2021/02/02 01:27:22;;;;;;;1.95;1.75;;;;;;;6.18;100;94033.56;;;;
2021/02/02 01:28:22;;;;;;;1.95;1.75;;;;;;;6.18;100;94033.56;;;;
2021/02/02 01:29:24;;;;;;;1.95;1.75;;;;;;;6.18;100;94033.56;;;;
2021/02/02 01:30:25;;;;;;;1.95;1.75;;;;;;;6.18;100;94033.56;;;;
2021/02/02 01:31:27;;;;;;;1.95;1.75;;;;;;;6.18;100;94033.56;;;;
2021/02/02 01:32:28;;;;;;;2;1.8;;;;;;;6.18;100;94043.36;;;;
2021/02/02 01:33:28;;;;;;;2;1.8;;;;;;;6.18;100;94043.36;;;;
2021/02/02 01:34:32;;;;;;;2;1.8;;;;;;;6.18;100;94043.36;;;;
2021/02/02 01:35:32;;;;;;;2;1.8;;;;;;;6.18;100;94043.36;;;;
2021/02/02 01:36:34;;;;;;;2;1.8;;;;;;;6.18;100;94043.36;;;;
2021/02/02 01:37:35;;;;;;;2;1.8;;;;;;;6.18;100;94043.36;;;;
2021/02/02 01:38:35;;;;;;;2;1.8;;;;;;;6.18;100;94043.36;;;;
2021/02/02 01:39:36;;;;;;;2;1.8;;;;;;;6.18;100;94043.36;;;;
2021/02/02 01:40:37;;;;;;;2;1.8;;;;;;;6.18;100;94043.36;;;;
2021/02/02 01:41:40;;;;;;;2;1.8;;;;;;;6.18;100;94043.36;;;;
2021/02/02 01:42:41;;;;;;;2;1.9;;;;;;;6.21;100;94056.68;;;;
2021/02/02 01:43:44;;;;;;;2;1.9;;;;;;;6.21;100;94056.68;;;;
2021/02/02 01:44:47;;;;;;;2;1.9;;;;;;;6.21;100;94056.68;;;;
2021/02/02 01:45:47;;;;;;;2;1.9;;;;;;;6.21;100;94056.68;;;;
2021/02/02 01:46:50;;;;;;;2;1.9;;;;;;;6.21;100;94056.68;;;;
2021/02/02 01:47:56;;;;;;;2;1.9;;;;;;;6.21;100;94056.68;;;;
2021/02/02 01:49:00;;;;;;;2;1.9;;;;;;;6.21;100;94056.68;;;;
2021/02/02 01:50:04;;;;;;;2;1.9;;;;;;;6.21;100;94056.68;;;;
2021/02/02 01:51:13;;;;;;;2;1.9;;;;;;;6.21;100;94056.68;;;;
2021/02/02 01:52:18;;;;;;;2;1.9;;;;;;;6.21;100;94056.68;;;;
2021/02/02 01:53:21;;;;;;;2.5;2.3;;;;;;;6.28;100;94066.31;;;;
2021/02/02 01:54:23;;;;;;;2.5;2.3;;;;;;;6.28;100;94066.31;;;;
2021/02/02 01:55:27;;;;;;;2.5;2.3;;;;;;;6.28;100;94066.31;;;;
2021/02/02 01:56:31;;;;;;;2.5;2.3;;;;;;;6.28;100;94066.31;;;;
2021/02/02 01:57:39;;;;;;;2.5;2.3;;;;;;;6.28;100;94066.31;;;;
2021/02/02 01:58:39;;;;;;;2.5;2.3;;;;;;;6.28;100;94066.31;;;;
2021/02/02 01:59:40;;;;;;;2.5;2.3;;;;;;;6.28;100;94066.31;;;;
2021/02/02 02:00:47;;;;;;;2.5;2.3;;;;;;;6.28;100;94066.31;;;;
2021/02/02 02:01:56;;;;;;;2.5;2.3;;;;;;;6.28;100;94066.31;;;;
2021/02/02 02:03:00;;;;;;;2.5;2.3;;;;;;;6.28;100;94066.31;;;;
2021/02/02 02:04:03;;;;;;;3.2;2.1;;;;;;;6.25;100;94072.17;;;;
2021/02/02 02:05:04;;;;;;;3.2;2.1;;;;;;;6.25;100;94072.17;;;;
2021/02/02 02:06:07;;;;;;;3.2;2.1;;;;;;;6.25;100;94072.17;;;;
2021/02/02 02:07:08;;;;;;;3.2;2.1;;;;;;;6.25;100;94072.17;;;;
2021/02/02 02:08:08;;;;;;;3.2;2.1;;;;;;;6.25;100;94072.17;;;;
2021/02/02 02:09:10;;;;;;;3.2;2.1;;;;;;;6.25;100;94072.17;;;;
2021/02/02 02:10:12;;;;;;;3.2;2.1;;;;;;;6.25;100;94072.17;;;;
2021/02/02 02:11:12;;;;;;;3.2;2.1;;;;;;;6.25;100;94072.17;;;;
2021/02/02 02:12:30;;;;;;;3.2;2.1;;;;;;;6.25;100;94072.17;;;;
2021/02/02 02:13:50;;;;;;;3.2;2.1;;;;;;;6.25;100;94072.17;;;;
2021/02/02 02:15:07;;;;;;;2.45;2.25;;;;;;;6.15;100;94087.1;;;;
2021/02/02 02:16:14;;;;;;;2.45;2.25;;;;;;;6.15;100;94087.1;;;;
2021/02/02 02:17:22;;;;;;;2.45;2.25;;;;;;;6.15;100;94087.1;;;;
2021/02/02 02:18:31;;;;;;;2.45;2.25;;;;;;;6.15;100;94087.1;;;;
2021/02/02 02:19:45;;;;;;;2.45;2.25;;;;;;;6.15;100;94087.1;;;;
2021/02/02 02:21:01;;;;;;;2.45;2.25;;;;;;;6.15;100;94087.1;;;;
2021/02/02 02:22:12;;;;;;;2.45;2.25;;;;;;;6.15;100;94087.1;;;;
2021/02/02 02:23:20;;;;;;;2.45;2.25;;;;;;;6.15;100;94087.1;;;;
2021/02/02 02:28:32;;;;;;;3.2;2.9;;;;;;;6.07;100;94103.57;;;;
2021/02/02 02:29:54;;;;;;;3.2;2.9;;;;;;;6.07;100;94103.57;;;;
2021/02/02 02:30:59;;;;;;;3.2;2.9;;;;;;;6.07;100;94103.57;;;;
2021/02/02 02:32:04;;;;;;;3.2;2.9;;;;;;;6.07;100;94103.57;;;;
2021/02/02 02:33:07;;;;;;;3.2;2.9;;;;;;;6.07;100;94103.57;;;;
2021/02/02 02:34:14;;;;;;;3.2;2.9;;;;;;;6.07;100;94103.57;;;;
2021/02/02 02:35:21;;;;;;;3.2;2.9;;;;;;;6.07;100;94103.57;;;;
2021/02/02 02:36:25;;;;;;;2.75;2.55;;;;;;;6.01;100;94100.08;;;;
2021/02/02 02:37:28;;;;;;;2.75;2.55;;;;;;;6.01;100;94100.08;;;;
2021/02/02 02:38:35;;;;;;;2.75;2.55;;;;;;;6.01;100;94100.08;;;;
2021/02/02 02:39:39;;;;;;;2.75;2.55;;;;;;;6.01;100;94100.08;;;;
2021/02/02 02:40:44;;;;;;;2.75;2.55;;;;;;;6.01;100;94100.08;;;;
2021/02/02 02:41:50;;;;;;;2.75;2.55;;;;;;;6.01;100;94100.08;;;;
2021/02/02 02:42:55;;;;;;;2.75;2.55;;;;;;;6.01;100;94100.08;;;;
2021/02/02 02:44:06;;;;;;;2.75;2.55;;;;;;;6.01;100;94100.08;;;;
2021/02/02 02:45:14;;;;;;;2.75;2.55;;;;;;;6.01;100;94100.08;;;;
2021/02/02 02:46:20;;;;;;;2.75;2.55;;;;;;;6.01;100;94100.08;;;;
2021/02/02 02:47:28;;;;;;;3.7;3.1;;;;;;;5.97;100;94091.28;;;;
2021/02/02 02:48:34;;;;;;;3.7;3.1;;;;;;;5.97;100;94091.28;;;;
2021/02/02 02:49:38;;;;;;;3.7;3.1;;;;;;;5.97;100;94091.28;;;;
2021/02/02 02:50:43;;;;;;;3.7;3.1;;;;;;;5.97;100;94091.28;;;;
2021/02/02 02:51:49;;;;;;;3.7;3.1;;;;;;;5.97;100;94091.28;;;;
2021/02/02 02:52:54;;;;;;;3.7;3.1;;;;;;;5.97;100;94091.28;;;;
2021/02/02 02:54:03;;;;;;;3.7;3.1;;;;;;;5.97;100;94091.28;;;;
2021/02/02 02:55:07;;;;;;;3.7;3.1;;;;;;;5.97;100;94091.28;;;;
2021/02/02 02:56:09;;;;;;;3.7;3.1;;;;;;;5.97;100;94091.28;;;;
2021/02/02 02:57:15;;;;;;;4.75;3.7;;;;;;;5.85;100;94115.12;;;;
2021/02/02 02:58:20;;;;;;;4.75;3.7;;;;;;;5.85;100;94115.12;;;;
2021/02/02 02:59:23;;;;;;;4.75;3.7;;;;;;;5.85;100;94115.12;;;;
2021/02/02 03:00:28;;;;;;;4.75;3.7;;;;;;;5.85;100;94115.12;;;;
2021/02/02 03:01:35;;;;;;;4.75;3.7;;;;;;;5.85;100;94115.12;;;;
2021/02/02 03:02:37;;;;;;;4.75;3.7;;;;;;;5.85;100;94115.12;;;;
2021/02/02 03:03:43;;;;;;;4.75;3.7;;;;;;;5.85;100;94115.12;;;;
2021/02/02 03:04:47;;;;;;;4.75;3.7;;;;;;;5.85;100;94115.12;;;;
2021/02/02 03:05:52;;;;;;;4.75;3.7;;;;;;;5.85;100;94115.12;;;;
2021/02/02 03:06:54;;;;;;;4.75;3.7;;;;;;;5.85;100;94115.12;;;;
2021/02/02 03:07:59;;;;;;;5.35;4.799999;;;;;;;5.79;100;94120.48;;;;
2021/02/02 03:09:06;;;;;;;5.35;4.799999;;;;;;;5.79;100;94120.48;;;;
2021/02/02 03:10:12;;;;;;;5.35;4.799999;;;;;;;5.79;100;94120.48;;;;
2021/02/02 03:11:13;;;;;;;5.35;4.799999;;;;;;;5.79;100;94120.48;;;;
2021/02/02 03:12:14;;;;;;;5.35;4.799999;;;;;;;5.79;100;94120.48;;;;
2021/02/02 03:13:14;;;;;;;5.35;4.799999;;;;;;;5.79;100;94120.48;;;;
2021/02/02 03:14:18;;;;;;;5.35;4.799999;;;;;;;5.79;100;94120.48;;;;
2021/02/02 03:15:19;;;;;;;5.35;4.799999;;;;;;;5.79;100;94120.48;;;;
2021/02/02 03:16:20;;;;;;;5.35;4.799999;;;;;;;5.79;100;94120.48;;;;
2021/02/02 03:17:21;;;;;;;5.35;4.799999;;;;;;;5.79;100;94120.48;;;;
2021/02/02 03:18:21;;;;;;;5.35;4.799999;;;;;;;5.79;100;94120.48;;;;
2021/02/02 03:19:22;;;;;;;5.900001;5.299999;;;;;;;5.7;100;94147.34;;;;
2021/02/02 03:20:23;;;;;;;5.900001;5.299999;;;;;;;5.7;100;94147.34;;;;
2021/02/02 03:21:23;;;;;;;5.900001;5.299999;;;;;;;5.7;100;94147.34;;;;
2021/02/02 03:22:32;;;;;;;5.900001;5.299999;;;;;;;5.7;100;94147.34;;;;
2021/02/02 03:23:40;;;;;;;5.900001;5.299999;;;;;;;5.7;100;94147.34;;;;
2021/02/02 03:24:47;;;;;;;5.900001;5.299999;;;;;;;5.7;100;94147.34;;;;
2021/02/02 03:25:52;;;;;;;5.900001;5.299999;;;;;;;5.7;100;94147.34;;;;
2021/02/02 03:26:56;;;;;;;5.900001;5.299999;;;;;;;5.7;100;94147.34;;;;
2021/02/02 03:28:06;;;;;;;5.900001;5.299999;;;;;;;5.7;100;94147.34;;;;
2021/02/02 03:29:11;;;;;;;6.449999;5.799999;;;;;;;5.56;100;94144.2;;;;
2021/02/02 03:30:15;;;;;;;6.449999;5.799999;;;;;;;5.56;100;94144.2;;;;
2021/02/02 03:31:21;;;;;;;6.449999;5.799999;;;;;;;5.56;100;94144.2;;;;
2021/02/02 03:32:27;;;;;;;6.449999;5.799999;;;;;;;5.56;100;94144.2;;;;
2021/02/02 03:33:35;;;;;;;6.449999;5.799999;;;;;;;5.56;100;94144.2;;;;
2021/02/02 03:34:43;;;;;;;6.449999;5.799999;;;;;;;5.56;100;94144.2;;;;
2021/02/02 03:35:48;;;;;;;6.449999;5.799999;;;;;;;5.56;100;94144.2;;;;
2021/02/02 03:36:51;;;;;;;6.449999;5.799999;;;;;;;5.56;100;94144.2;;;;
2021/02/02 03:38:14;;;;;;;6.449999;5.799999;;;;;;;5.56;100;94144.2;;;;
2021/02/02 03:39:24;;;;;;;6.449999;5.799999;;;;;;;5.56;100;94144.2;;;;
2021/02/02 03:40:27;;;;;;;6;5.4;;;;;;;5.31;100;94150.57;;;;
2021/02/02 03:41:31;;;;;;;6;5.4;;;;;;;5.31;100;94150.57;;;;
2021/02/02 03:42:36;;;;;;;6;5.4;;;;;;;5.31;100;94150.57;;;;
2021/02/02 03:43:41;;;;;;;6;5.4;;;;;;;5.31;100;94150.57;;;;
2021/02/02 03:44:46;;;;;;;6;5.4;;;;;;;5.31;100;94150.57;;;;
2021/02/02 03:45:54;;;;;;;6;5.4;;;;;;;5.31;100;94150.57;;;;
2021/02/02 03:46:59;;;;;;;6;5.4;;;;;;;5.31;100;94150.57;;;;
2021/02/02 03:48:06;;;;;;;6;5.4;;;;;;;5.31;100;94150.57;;;;
2021/02/02 03:49:12;;;;;;;6;5.4;;;;;;;5.31;100;94150.57;;;;
2021/02/02 03:50:19;;;;;;;6;5.4;;;;;;;5.31;100;94150.57;;;;
2021/02/02 03:51:25;;;;;;;6.200001;5.599999;;;;;;;5.19;100;94171.15;;;;
2021/02/02 03:52:32;;;;;;;6.200001;5.599999;;;;;;;5.19;100;94171.15;;;;
2021/02/02 03:53:38;;;;;;;6.200001;5.599999;;;;;;;5.19;100;94171.15;;;;
2021/02/02 03:54:44;;;;;;;6.200001;5.599999;;;;;;;5.19;100;94171.15;;;;
2021/02/02 03:55:47;;;;;;;6.200001;5.599999;;;;;;;5.19;100;94171.15;;;;
2021/02/02 03:56:56;;;;;;;6.200001;5.599999;;;;;;;5.19;100;94171.15;;;;
2021/02/02 03:58:00;;;;;;;6.200001;5.599999;;;;;;;5.19;100;94171.15;;;;
2021/02/02 03:59:06;;;;;;;6.200001;5.599999;;;;;;;5.19;100;94171.15;;;;
2021/02/02 04:00:11;;;;;;;6.200001;5.599999;;;;;;;5.19;100;94171.15;;;;
2021/02/02 04:01:17;;;;;;;5.5;4.9;;;;;;;5.38;100;94168.39;;;;
2021/02/02 04:02:25;;;;;;;5.5;4.9;;;;;;;5.38;100;94168.39;;;;
2021/02/02 04:03:30;;;;;;;5.5;4.9;;;;;;;5.38;100;94168.39;;;;
2021/02/02 04:04:34;;;;;;;5.5;4.9;;;;;;;5.38;100;94168.39;;;;
2021/02/02 04:05:38;;;;;;;5.5;4.9;;;;;;;5.38;100;94168.39;;;;
2021/02/02 04:06:43;;;;;;;5.5;4.9;;;;;;;5.38;100;94168.39;;;;
2021/02/02 04:07:46;;;;;;;5.5;4.9;;;;;;;5.38;100;94168.39;;;;
2021/02/02 04:08:51;;;;;;;5.5;4.9;;;;;;;5.38;100;94168.39;;;;
2021/02/02 04:09:56;;;;;;;5.5;4.9;;;;;;;5.38;100;94168.39;;;;
2021/02/02 04:10:56;;;;;;;5.5;4.9;;;;;;;5.38;100;94168.39;;;;
2021/02/02 04:12:02;;;;;;;5.15;4.649999;;;;;;;5.48;100;94172.53;;;;
2021/02/02 04:13:11;;;;;;;5.15;4.649999;;;;;;;5.48;100;94172.53;;;;
2021/02/02 04:14:17;;;;;;;5.15;4.649999;;;;;;;5.48;100;94172.53;;;;
2021/02/02 04:15:22;;;;;;;5.15;4.649999;;;;;;;5.48;100;94172.53;;;;
2021/02/02 04:16:26;;;;;;;5.15;4.649999;;;;;;;5.48;100;94172.53;;;;
2021/02/02 04:17:32;;;;;;;5.15;4.649999;;;;;;;5.48;100;94172.53;;;;
2021/02/02 04:18:44;;;;;;;5.15;4.649999;;;;;;;5.48;100;94172.53;;;;
2021/02/02 04:20:01;;;;;;;5.15;4.649999;;;;;;;5.48;100;94172.53;;;;
2021/02/02 04:21:07;;;;;;;5.15;4.649999;;;;;;;5.48;100;94172.53;;;;
2021/02/02 04:22:12;;;;;;;5.15;4.649999;;;;;;;5.48;100;94172.53;;;;
2021/02/02 04:23:13;;;;;;;4.649999;3.75;;;;;;;5.31;100;94170.75;;;;
2021/02/02 04:24:18;;;;;;;4.649999;3.75;;;;;;;5.31;100;94170.75;;;;
2021/02/02 04:25:23;;;;;;;4.649999;3.75;;;;;;;5.31;100;94170.75;;;;
2021/02/02 04:26:24;;;;;;;4.649999;3.75;;;;;;;5.31;100;94170.75;;;;
2021/02/02 04:27:26;;;;;;;4.649999;3.75;;;;;;;5.31;100;94170.75;;;;
2021/02/02 04:28:27;;;;;;;4.649999;3.75;;;;;;;5.31;100;94170.75;;;;
2021/02/02 04:29:29;;;;;;;4.649999;3.75;;;;;;;5.31;100;94170.75;;;;
2021/02/02 04:30:31;;;;;;;4.649999;3.75;;;;;;;5.31;100;94170.75;;;;
2021/02/02 04:31:32;;;;;;;4.649999;3.75;;;;;;;5.31;100;94170.75;;;;
2021/02/02 04:32:35;;;;;;;4.649999;3.75;;;;;;;5.31;100;94170.75;;;;
2021/02/02 04:33:45;;;;;;;3.75;3.45;;;;;;;5.09;100;94165.12;;;;
2021/02/02 04:34:46;;;;;;;3.75;3.45;;;;;;;5.09;100;94165.12;;;;
2021/02/02 04:35:46;;;;;;;3.75;3.45;;;;;;;5.09;100;94165.12;;;;
2021/02/02 04:36:47;;;;;;;3.75;3.45;;;;;;;5.09;100;94165.12;;;;
2021/02/02 04:37:47;;;;;;;3.75;3.45;;;;;;;5.09;100;94165.12;;;;
2021/02/02 04:38:48;;;;;;;3.75;3.45;;;;;;;5.09;100;94165.12;;;;
2021/02/02 04:39:49;;;;;;;3.75;3.45;;;;;;;5.09;100;94165.12;;;;
2021/02/02 04:40:49;;;;;;;3.75;3.45;;;;;;;5.09;100;94165.12;;;;
2021/02/02 04:41:56;;;;;;;3.75;3.45;;;;;;;5.09;100;94165.12;;;;
2021/02/02 04:43:15;;;;;;;3.75;3.45;;;;;;;5.09;100;94165.12;;;;
2021/02/02 04:44:18;;;;;;;4;3.6;;;;;;;4.87;100;94163.64;;;;
2021/02/02 04:45:22;;;;;;;4;3.6;;;;;;;4.87;100;94163.64;;;;
2021/02/02 04:46:27;;;;;;;4;3.6;;;;;;;4.87;100;94163.64;;;;
2021/02/02 04:47:29;;;;;;;4;3.6;;;;;;;4.87;100;94163.64;;;;
2021/02/02 04:48:35;;;;;;;4;3.6;;;;;;;4.87;100;94163.64;;;;
2021/02/02 04:49:41;;;;;;;4;3.6;;;;;;;4.87;100;94163.64;;;;
2021/02/02 04:50:49;;;;;;;4;3.6;;;;;;;4.87;100;94163.64;;;;
2021/02/02 04:51:56;;;;;;;4;3.6;;;;;;;4.87;100;94163.64;;;;
2021/02/02 04:52:56;;;;;;;4;3.6;;;;;;;4.87;100;94163.64;;;;
2021/02/02 04:53:57;;;;;;;4;3.6;;;;;;;4.87;100;94163.64;;;;
2021/02/02 04:54:59;;;;;;;3.95;3.55;;;;;;;4.82;100;94188.92;;;;
2021/02/02 04:56:03;;;;;;;3.95;3.55;;;;;;;4.82;100;94188.92;;;;
2021/02/02 04:57:23;;;;;;;3.95;3.55;;;;;;;4.82;100;94188.92;;;;
2021/02/02 04:58:36;;;;;;;3.95;3.55;;;;;;;4.82;100;94188.92;;;;
2021/02/02 04:59:38;;;;;;;3.95;3.55;;;;;;;4.82;100;94188.92;;;;
2021/02/02 05:00:57;;;;;;;3.95;3.55;;;;;;;4.82;100;94188.92;;;;
2021/02/02 05:02:07;;;;;;;3.95;3.55;;;;;;;4.82;100;94188.92;;;;
2021/02/02 05:03:12;;;;;;;3.95;3.55;;;;;;;4.82;100;94188.92;;;;
2021/02/02 05:04:25;;;;;;;3.95;3.55;;;;;;;4.82;100;94188.92;;;;
2021/02/02 05:05:37;;;;;;;3.85;3.45;;;;;;;4.99;100;94189.47;;;;
2021/02/02 05:06:44;;;;;;;3.85;3.45;;;;;;;4.99;100;94189.47;;;;
2021/02/02 05:07:51;;;;;;;3.85;3.45;;;;;;;4.99;100;94189.47;;;;
2021/02/02 05:09:06;;;;;;;3.85;3.45;;;;;;;4.99;100;94189.47;;;;
2021/02/02 05:10:18;;;;;;;3.85;3.45;;;;;;;4.99;100;94189.47;;;;
2021/02/02 05:11:23;;;;;;;3.85;3.45;;;;;;;4.99;100;94189.47;;;;
2021/02/02 05:12:27;;;;;;;3.85;3.45;;;;;;;4.99;100;94189.47;;;;
2021/02/02 05:13:42;;;;;;;3.85;3.45;;;;;;;4.99;100;94189.47;;;;
2021/02/02 05:14:51;;;;;;;3.85;3.45;;;;;;;4.99;100;94189.47;;;;
2021/02/02 05:16:06;;;;;;;3.25;2.95;;;;;;;5.13;100;94201.59;;;;
2021/02/02 05:17:16;;;;;;;3.25;2.95;;;;;;;5.13;100;94201.59;;;;
2021/02/02 05:18:20;;;;;;;3.25;2.95;;;;;;;5.13;100;94201.59;;;;
2021/02/02 05:19:36;;;;;;;3.25;2.95;;;;;;;5.13;100;94201.59;;;;
2021/02/02 05:20:48;;;;;;;3.25;2.95;;;;;;;5.13;100;94201.59;;;;
2021/02/02 05:21:55;;;;;;;3.25;2.95;;;;;;;5.13;100;94201.59;;;;
2021/02/02 05:23:10;;;;;;;3.25;2.95;;;;;;;5.13;100;94201.59;;;;
2021/02/02 05:24:19;;;;;;;3.25;2.95;;;;;;;5.13;100;94201.59;;;;
2021/02/02 05:25:23;;;;;;;3.25;2.95;;;;;;;5.13;100;94201.59;;;;
2021/02/02 05:26:24;;;;;;;3.25;2.95;;;;;;;5.13;100;94201.59;;;;
2021/02/02 05:27:29;;;;;;;3.2;2.9;;;;;;;5.29;100;94222.38;;;;
2021/02/02 05:28:33;;;;;;;3.2;2.9;;;;;;;5.29;100;94222.38;;;;
2021/02/02 05:29:42;;;;;;;3.2;2.9;;;;;;;5.29;100;94222.38;;;;
2021/02/02 05:30:48;;;;;;;3.2;2.9;;;;;;;5.29;100;94222.38;;;;
2021/02/02 05:31:50;;;;;;;3.2;2.9;;;;;;;5.29;100;94222.38;;;;
2021/02/02 05:32:57;;;;;;;3.2;2.9;;;;;;;5.29;100;94222.38;;;;
2021/02/02 05:34:02;;;;;;;3.2;2.9;;;;;;;5.29;100;94222.38;;;;
2021/02/02 05:35:06;;;;;;;3.2;2.9;;;;;;;5.29;100;94222.38;;;;
2021/02/02 05:36:10;;;;;;;3.2;2.9;;;;;;;5.29;100;94222.38;;;;
2021/02/02 05:37:13;;;;;;;3.2;2.7;;;;;;;5.4;100;94226.53;;;;
2021/02/02 05:38:14;;;;;;;3.2;2.7;;;;;;;5.4;100;94226.53;;;;
2021/02/02 05:39:14;;;;;;;3.2;2.7;;;;;;;5.4;100;94226.53;;;;
2021/02/02 05:40:18;;;;;;;3.2;2.7;;;;;;;5.4;100;94226.53;;;;
2021/02/02 05:41:19;;;;;;;3.2;2.7;;;;;;;5.4;100;94226.53;;;;
2021/02/02 05:42:22;;;;;;;3.2;2.7;;;;;;;5.4;100;94226.53;;;;
2021/02/02 05:43:27;;;;;;;3.2;2.7;;;;;;;5.4;100;94226.53;;;;
2021/02/02 05:44:29;;;;;;;3.2;2.7;;;;;;;5.4;100;94226.53;;;;
2021/02/02 05:45:33;;;;;;;3.2;2.7;;;;;;;5.4;100;94226.53;;;;
2021/02/02 05:46:33;;;;;;;3.2;2.7;;;;;;;5.4;100;94226.53;;;;
2021/02/02 05:47:34;;;;;;;3.2;2.7;;;;;;;5.4;100;94226.53;;;;
2021/02/02 05:48:35;;;;;;;3.5;3.15;;;;;;;5.45;100;94233.2;;;;
2021/02/02 05:49:35;;;;;;;3.5;3.15;;;;;;;5.45;100;94233.2;;;;
2021/02/02 05:50:37;;;;;;;3.5;3.15;;;;;;;5.45;100;94233.2;;;;
2021/02/02 05:51:40;;;;;;;3.5;3.15;;;;;;;5.45;100;94233.2;;;;
2021/02/02 05:52:41;;;;;;;3.5;3.15;;;;;;;5.45;100;94233.2;;;;
2021/02/02 05:53:43;;;;;;;3.5;3.15;;;;;;;5.45;100;94233.2;;;;
2021/02/02 05:54:44;;;;;;;3.5;3.15;;;;;;;5.45;100;94233.2;;;;
2021/02/02 05:55:50;;;;;;;3.5;3.15;;;;;;;5.45;100;94233.2;;;;
2021/02/02 05:56:51;;;;;;;3.5;3.15;;;;;;;5.45;100;94233.2;;;;
2021/02/02 05:57:53;;;;;;;3.5;3.15;;;;;;;5.45;100;94233.2;;;;
2021/02/02 05:59:05;;;;;;;3;2.8;;;;;;;5.53;100;94252.14;;;;
2021/02/02 06:00:09;;;;;;;3;2.8;;;;;;;5.53;100;94252.14;;;;
2021/02/02 06:01:11;;;;;;;3;2.8;;;;;;;5.53;100;94252.14;;;;
2021/02/02 06:02:19;;;;;;;3;2.8;;;;;;;5.53;100;94252.14;;;;
2021/02/02 06:03:29;;;;;;;3;2.8;;;;;;;5.53;100;94252.14;;;;
2021/02/02 06:04:32;;;;;;;3;2.8;;;;;;;5.53;100;94252.14;;;;
2021/02/02 06:05:33;;;;;;;3;2.8;;;;;;;5.53;100;94252.14;;;;
2021/02/02 06:06:34;;;;;;;3;2.8;;;;;;;5.53;100;94252.14;;;;
2021/02/02 06:07:35;;;;;;;3;2.8;;;;;;;5.53;100;94252.14;;;;
2021/02/02 06:08:36;;;;;;;3;2.8;;;;;;;5.53;100;94252.14;;;;
2021/02/02 06:09:38;;;;;;;3.400001;3.1;;;;;;;5.64;100;94257.53;;;;
2021/02/02 06:10:45;;;;;;;3.400001;3.1;;;;;;;5.64;100;94257.53;;;;
2021/02/02 06:11:48;;;;;;;3.400001;3.1;;;;;;;5.64;100;94257.53;;;;
2021/02/02 06:12:50;;;;;;;3.400001;3.1;;;;;;;5.64;100;94257.53;;;;
2021/02/02 06:13:52;;;;;;;3.400001;3.1;;;;;;;5.64;100;94257.53;;;;
2021/02/02 06:14:52;;;;;;;3.400001;3.1;;;;;;;5.64;100;94257.53;;;;
2021/02/02 06:15:53;;;;;;;3.400001;3.1;;;;;;;5.64;100;94257.53;;;;
2021/02/02 06:17:05;;;;;;;3.400001;3.1;;;;;;;5.64;100;94257.53;;;;
2021/02/02 06:18:05;;;;;;;3.400001;3.1;;;;;;;5.64;100;94257.53;;;;
2021/02/02 06:19:14;;;;;;;3.400001;3.1;;;;;;;5.64;100;94257.53;;;;
2021/02/02 06:20:20;;;;;;;3.25;2.8;;;;;;;5.72;100;94251.93;;;;
2021/02/02 06:21:23;;;;;;;3.25;2.8;;;;;;;5.72;100;94251.93;;;;
2021/02/02 06:22:26;;;;;;;3.25;2.8;;;;;;;5.72;100;94251.93;;;;
2021/02/02 06:23:27;;;;;;;3.25;2.8;;;;;;;5.72;100;94251.93;;;;
2021/02/02 06:24:28;;;;;;;3.25;2.8;;;;;;;5.72;100;94251.93;;;;
2021/02/02 06:25:32;;;;;;;3.25;2.8;;;;;;;5.72;100;94251.93;;;;
2021/02/02 06:26:37;;;;;;;3.25;2.8;;;;;;;5.72;100;94251.93;;;;
2021/02/02 06:27:43;;;;;;;3.25;2.8;;;;;;;5.72;100;94251.93;;;;
2021/02/02 06:28:45;;;;;;;3.25;2.8;;;;;;;5.72;100;94251.93;;;;
2021/02/02 06:29:49;;;;;;;3.25;2.8;;;;;;;5.72;100;94251.93;;;;
2021/02/02 06:30:57;;;;;;;3.2;2.85;;;;;;;5.74;100;94268.47;;;;
2021/02/02 06:32:10;;;;;;;3.2;2.85;;;;;;;5.74;100;94268.47;;;;
2021/02/02 06:33:11;;;;;;;3.2;2.85;;;;;;;5.74;100;94268.47;;;;
2021/02/02 06:34:14;;;;;;;3.2;2.85;;;;;;;5.74;100;94268.47;;;;
2021/02/02 06:35:17;;;;;;;3.2;2.85;;;;;;;5.74;100;94268.47;;;;
2021/02/02 06:36:29;;;;;;;3.2;2.85;;;;;;;5.74;100;94268.47;;;;
2021/02/02 06:37:33;;;;;;;3.2;2.85;;;;;;;5.74;100;94268.47;;;;
2021/02/02 06:38:35;;;;;;;3.2;2.85;;;;;;;5.74;100;94268.47;;;;
2021/02/02 06:39:40;;;;;;;3.2;2.85;;;;;;;5.74;100;94268.47;;;;
2021/02/02 06:40:50;;;;;;;3.2;2.85;;;;;;;5.74;100;94268.47;;;;
2021/02/02 06:41:57;;;;;;;3.3;2.5;;;;;;;5.8;100;94252.92;;;;
2021/02/02 06:43:01;;;;;;;3.3;2.5;;;;;;;5.8;100;94252.92;;;;
2021/02/02 06:44:05;;;;;;;3.3;2.5;;;;;;;5.8;100;94252.92;;;;
2021/02/02 06:45:16;;;;;;;3.3;2.5;;;;;;;5.8;100;94252.92;;;;